Bookmark and Share
Track history (hours):
 

Scf Explorer

More information available from US FCC via Universal Licensing System and Coast Guard Vessel Documentation Center.

Last reported at 2014-Apr-22 01:26 UTC. Time now 2014-Apr-24 04:29 UTC.
Position N 30°02' W 091°15'.

Length 35 m; draft 2.3 m.

Type: Ship (hazmat cat B). MMSI: 367330620.

NotesDate/timePositionNaut miles runAvg speedWind from/ knotsBaromVisibWave heightAir tempDewpointWater temp
2014-Apr-22 01:26N 30°02' W 091°15'3 3.4
2014-Apr-22 00:31N 29°59' W 091°16'4 3.5
2014-Apr-21 23:19N 29°55' W 091°14'2 3.1
2014-Apr-21 22:33N 29°53' W 091°13'4 3.7
2014-Apr-21 21:33N 29°49' W 091°10'2 2.0
2014-Apr-21 20:33N 29°47' W 091°10'4 4.0
2014-Apr-21 19:33N 29°44' W 091°11'4 3.5
2014-Apr-21 18:33N 29°41' W 091°13'4 4.1
2014-Apr-21 17:33N 29°39' W 091°18'4 4.3
2014-Apr-21 16:33N 29°39' W 091°23'33 2.5
2014-Apr-21 03:19N 29°50' W 091°58'  
2014-Apr-16 03:16N 29°25' W 094°50'6 8.0
2014-Apr-16 02:33N 29°30' W 094°52'8 7.5
2014-Apr-16 01:33N 29°36' W 094°57'7 6.6
2014-Apr-16 00:33N 29°42' W 095°01'5 5.0
2014-Apr-15 23:31N 29°45' W 095°06'4 0.1
2014-Apr-14 14:30N 29°45' W 095°11'4 0.2
2014-Apr-13 21:19N 29°46' W 095°06'0 0.0
2014-Apr-13 20:10N 29°46' W 095°06'0 0.1
2014-Apr-13 15:30N 29°46' W 095°06'5 4.6
2014-Apr-13 14:30N 29°44' W 095°01'  

Dump ship's entire track history

sailing weather and tide predictions

Scf Explorer — WDE2863 — position and weather